TimeCEST,TemperatureF,Dew PointF,Humidity,Sea Level PressureIn,VisibilityMPH,Wind Direction,Wind SpeedMPH,Gust SpeedMPH,PrecipitationIn,Events,Conditions,WindDirDegrees,DateUTC
12:00 AM,51.8,42.8,71,29.53,6.2,East,4.6,-,N/A,,Unknown,100,2013-04-03 22:00:00
12:30 AM,51.8,42.8,71,29.53,6.2,ENE,3.5,-,N/A,,Unknown,70,2013-04-03 22:30:00
1:00 AM,51.8,42.8,71,29.53,6.2,Variable,1.2,-,N/A,,Overcast,0,2013-04-03 23:00:00
1:30 AM,51.8,44.6,76,29.50,6.2,Variable,2.3,-,N/A,,Overcast,0,2013-04-03 23:30:00
2:00 AM,50.0,44.6,82,29.50,6.2,North,3.5,-,N/A,,Overcast,10,2013-04-04 00:00:00
2:30 AM,50.0,44.6,82,29.50,6.2,WNW,8.1,-,N/A,,Overcast,300,2013-04-04 00:30:00
3:00 AM,50.0,44.6,82,29.50,6.2,NNW,5.8,-,N/A,,Overcast,330,2013-04-04 01:00:00
3:30 AM,50.0,44.6,82,29.50,6.2,NW,6.9,-,N/A,,Overcast,310,2013-04-04 01:30:00
4:00 AM,48.2,44.6,87,29.50,6.2,WNW,4.6,-,N/A,,Unknown,290,2013-04-04 02:00:00
4:30 AM,48.2,42.8,82,29.50,6.2,WNW,3.5,-,N/A,,Unknown,290,2013-04-04 02:30:00
5:00 AM,48.2,44.6,87,29.50,6.2,NW,10.4,-,N/A,,Unknown,310,2013-04-04 03:00:00
5:30 AM,48.2,44.6,87,29.50,6.2,NW,9.2,-,N/A,,Overcast,310,2013-04-04 03:30:00
6:00 AM,48.2,44.6,87,29.50,6.2,NW,6.9,-,N/A,Rain,Light Rain,310,2013-04-04 04:00:00
6:30 AM,46.4,44.6,93,29.50,6.2,NNW,8.1,-,N/A,Rain,Light Rain,330,2013-04-04 04:30:00
7:00 AM,46.4,44.6,93,29.50,5.0,NW,6.9,-,N/A,Rain,Light Rain,310,2013-04-04 05:00:00
7:30 AM,46.4,44.6,93,29.50,5.0,NW,4.6,-,N/A,Rain,Light Rain,310,2013-04-04 05:30:00
8:00 AM,46.4,44.6,93,29.50,5.0,West,3.5,-,N/A,Rain,Light Rain,280,2013-04-04 06:00:00
8:30 AM,46.4,44.6,93,29.50,5.0,Variable,2.3,-,N/A,Rain,Light Rain,0,2013-04-04 06:30:00
9:00 AM,46.4,44.6,93,29.50,5.0,West,3.5,-,N/A,Rain,Light Rain,270,2013-04-04 07:00:00
9:30 AM,46.4,44.6,93,29.50,5.0,Variable,2.3,-,N/A,Rain,Light Rain,0,2013-04-04 07:30:00
10:00 AM,46.4,44.6,93,29.50,5.0,Calm,Calm,-,N/A,Rain,Light Rain,0,2013-04-04 08:00:00
10:30 AM,46.4,44.6,93,29.50,3.7,Variable,2.3,-,N/A,Rain,Light Rain,0,2013-04-04 08:30:00
11:00 AM,46.4,44.6,93,29.53,3.7,Calm,Calm,-,N/A,Rain,Light Rain,0,2013-04-04 09:00:00
11:30 AM,48.2,44.6,87,29.53,5.6,Calm,Calm,-,N/A,Rain,Light Rain,0,2013-04-04 09:30:00
12:00 PM,48.2,44.6,87,29.53,5.6,Variable,1.2,-,N/A,Rain,Light Rain,0,2013-04-04 10:00:00
1:00 PM,50.0,46.4,87,29.53,5.6,Variable,2.3,-,N/A,Rain,Light Rain,0,2013-04-04 11:00:00
1:30 PM,51.8,46.4,82,29.53,5.6,Variable,1.2,-,N/A,,Mostly Cloudy,0,2013-04-04 11:30:00
2:00 PM,51.8,46.4,82,29.53,6.2,North,3.5,-,N/A,,Mostly Cloudy,10,2013-04-04 12:00:00
2:30 PM,53.6,46.4,77,29.53,6.2,NNE,3.5,-,N/A,,Mostly Cloudy,20,2013-04-04 12:30:00
3:00 PM,53.6,46.4,77,29.53,6.2,NNW,5.8,-,N/A,,Mostly Cloudy,330,2013-04-04 13:00:00
3:30 PM,53.6,48.2,82,29.53,6.2,NNW,6.9,-,N/A,,Mostly Cloudy,340,2013-04-04 13:30:00
4:00 PM,51.8,50.0,94,29.53,5.6,NNW,10.4,-,N/A,Rain,Light Rain Showers,340,2013-04-04 14:00:00
4:30 PM,51.8,48.2,88,29.53,6.2,NNW,9.2,-,N/A,Rain,Light Rain,330,2013-04-04 14:30:00
5:00 PM,48.2,46.4,93,29.53,1.9,NNW,15.0,-,N/A,Rain,Light Rain Showers,340,2013-04-04 15:00:00
5:30 PM,46.4,44.6,93,29.56,1.1,NW,15.0,-,N/A,,Light Drizzle,320,2013-04-04 15:30:00
6:00 PM,46.4,44.6,93,29.59,2.8,NW,11.5,-,N/A,,Mostly Cloudy,310,2013-04-04 16:00:00
6:30 PM,46.4,44.6,93,29.59,1.2,NW,12.7,-,N/A,,Light Drizzle,310,2013-04-04 16:30:00
7:00 PM,46.4,44.6,93,29.62,1.7,WNW,8.1,-,N/A,Rain,Light Rain,290,2013-04-04 17:00:00
7:30 PM,44.6,42.8,93,29.62,2.2,WNW,15.0,-,N/A,Rain,Light Rain,290,2013-04-04 17:30:00
8:00 PM,44.6,42.8,93,29.65,1.7,West,15.0,-,N/A,Rain,Light Rain,280,2013-04-04 18:00:00
8:30 PM,44.6,41.0,87,29.65,2.2,West,15.0,-,N/A,,Mostly Cloudy,280,2013-04-04 18:30:00
9:00 PM,44.6,39.2,81,29.68,2.5,West,13.8,-,N/A,,Mostly Cloudy,280,2013-04-04 19:00:00
9:30 PM,42.8,37.4,81,29.71,3.7,WNW,12.7,-,N/A,,Overcast,290,2013-04-04 19:30:00
10:00 PM,42.8,35.6,76,29.71,3.7,West,9.2,-,N/A,,Overcast,280,2013-04-04 20:00:00
10:30 PM,42.8,37.4,81,29.74,3.7,West,6.9,-,N/A,,Overcast,260,2013-04-04 20:30:00
11:00 PM,42.8,37.4,81,29.74,4.3,WSW,8.1,-,N/A,,Overcast,250,2013-04-04 21:00:00
11:30 PM,42.8,37.4,81,29.74,3.7,WSW,6.9,-,N/A,,Overcast,250,2013-04-04 21:30:00